Aérodrome :
LOGIN :

S'inscrire | Disclaimer

   EN    FR    IT 

 










Légende :    VFR   VFR Marginal   IFR   IFR Intensif   IFR Très Intensif
Visi : 
Plafond : 
>= 8 km
>= 3000ft
5 à 8 km
1000 à 3000 ft
1500m à 5 km
500 à 1000 ft
800 à 1500m
200 à 500 ft
< 800m
< 200 ft
Symboles :   Orages  Brouillard  Fortes neiges  Fortes précipitations  Vent > 20 kt
SIGMETs :   Divers  Orages  Givrage  Turbulence  Onde Orograph.  Cendres Volcan.






- Altitude de l'aérodrome : 144 ft
- Code IATA : PGF


LFMP - Perpignan

DERNIER METAR :
  • 100430Z AUTO 33014G28KT 280V010 9999 SCT042 10/02 Q1026 NOSIG

METARs EXPIRÉS :
  • 100400Z AUTO 31014G26KT 280V340 9999 SCT042 SCT048 10/01 Q1025 TEMPO 32020G37KT
  • 100330Z AUTO 32017G35KT 290V360 9999 SCT048 10/01 Q1025 NOSIG
  • 100300Z AUTO 32015G30KT 290V350 9999 SCT047 10/01 Q1025 NOSIG
  • 100230Z AUTO 33017G28KT 290V360 9999 SCT047 10/01 Q1025
  • 100200Z AUTO 31018G31KT 280V340 9999 SCT044 SCT052 10/02 Q1024

TAF TAF LFMP
Valide du 10 à 03h jusqu'au 11 à 03h UTC


100200Z 1003/1103 32017G27KT 9999 SCT050
PROB40
TEMPO 1003/1010 32020G37KT
BECMG 1014/1016 30006KT CAVOK
ATIS : +33 4 68 63 75 12



MET'MAP, la Météo Aéronautique d'un coup d'oeil ! - Copyright ORBIFLY Décembre 2007 - Disclaimer

ORBIFLY MET'MAP TEAM :

Programmation & Développement : Alexandra Zaïnal
Sur une idée originale de : Baudouin d'Aumeries
Assistance à la programmation : Marc-Olivier Méhu
Soutien technique & logistique : Manuel Goepfert

Contact : metmap@orbifly.com




SOURCES & CREDITS :

   NOAA